1F0

Ardmore Downtown Executive Airport

Ardmore, Oklahoma, USA
METAR K1F0 172355Z AUTO 00000KT 10SM CLR 15/07 A3004 RMK AO2 TSNO
Observed Flight Rules
Nov-17 @ 23:55 UTC (21 minutes ago) Visual Flight Rules
Visibility Clouds
10 miles
  • Clear skies
Temperatures Readings
Current 15°C / 59°F
Dewpoint 7°C / 45°F
Humidity 59%
Altimeter 30.04" Hg
Pressure 1017 hPa
Elevation 257
METAR K1F0 172355Z AUTO 00000KT 10SM CLR 15/07 A3004 RMK AO2 TSNO
Observed Flight Rules
Nov-17 @ 23:55 UTC
(21 minutes ago)
VFR
Clouds
  • Clear skies
Temperature Dewpoint
15°C / 59°F 7°C / 45°F
Humidity Altimeter Pressure
59% 30.04" Hg 1017 hPa